createdAt,value
2022-07-30T00:00:38.291Z,6.72
2022-07-30T00:01:40.523Z,6.50
2022-07-30T00:02:43.156Z,6.65
2022-07-30T00:03:45.357Z,6.75
2022-07-30T00:04:47.595Z,6.80
2022-07-30T00:05:50.066Z,6.47
2022-07-30T00:06:54.293Z,6.77
2022-07-30T00:07:59.116Z,6.10
2022-07-30T00:09:02.909Z,6.65
2022-07-30T00:10:06.984Z,6.60
2022-07-30T00:11:12.933Z,6.07
2022-07-30T00:12:16.446Z,6.18
2022-07-30T00:13:20.520Z,6.00
2022-07-30T00:14:24.686Z,5.93
2022-07-30T00:15:28.577Z,6.10
2022-07-30T00:16:32.111Z,6.30
2022-07-30T00:17:35.572Z,6.00
2022-07-30T00:18:39.043Z,6.55
2022-07-30T00:19:44.121Z,6.30
2022-07-30T00:20:49.445Z,6.72
2022-07-30T00:21:54.848Z,7.00
2022-07-30T00:22:57.347Z,6.43
2022-07-30T00:24:01.374Z,6.40
2022-07-30T00:25:04.510Z,6.13
2022-07-30T00:26:06.828Z,6.80
2022-07-30T00:27:09.543Z,6.40
2022-07-30T00:28:13.412Z,6.43
2022-07-30T00:29:16.271Z,6.57
2022-07-30T00:30:18.489Z,6.32
2022-07-30T00:31:20.596Z,6.55
2022-07-30T00:32:22.830Z,6.68
2022-07-30T00:33:24.973Z,6.40
2022-07-30T00:34:28.145Z,6.30
2022-07-30T00:35:31.263Z,5.85
2022-07-30T00:36:33.586Z,6.72
2022-07-30T00:37:35.852Z,6.60
2022-07-30T00:38:37.988Z,6.57
2022-07-30T00:39:40.181Z,6.38
2022-07-30T00:40:42.456Z,6.32
2022-07-30T00:41:55.628Z,6.40
2022-07-30T00:42:58.059Z,6.28
2022-07-30T00:44:00.295Z,6.38
2022-07-30T00:45:03.940Z,6.38
2022-07-30T00:46:06.315Z,6.45
2022-07-30T00:47:08.534Z,6.30
2022-07-30T00:48:11.781Z,6.38
2022-07-30T00:49:14.099Z,6.30
2022-07-30T00:50:16.843Z,6.07
2022-07-30T00:51:19.653Z,6.22
2022-07-30T00:52:21.762Z,6.35
2022-07-30T00:53:24.015Z,6.20
2022-07-30T00:54:26.193Z,6.30
2022-07-30T00:55:29.547Z,6.13
2022-07-30T00:56:31.761Z,6.13
2022-07-30T00:57:33.941Z,6.25
2022-07-30T00:58:37.057Z,5.93
2022-07-30T00:59:39.297Z,6.30
2022-07-30T01:00:41.596Z,6.30
2022-07-30T01:01:44.096Z,6.07
2022-07-30T01:02:46.746Z,6.97
2022-07-30T01:03:48.930Z,6.13
2022-07-30T01:04:51.276Z,6.38
2022-07-30T01:05:56.364Z,6.68
2022-07-30T01:06:59.439Z,6.40
2022-07-30T01:08:01.931Z,6.57
2022-07-30T01:09:04.283Z,6.82
2022-07-30T01:10:08.091Z,6.53
2022-07-30T01:11:11.811Z,6.20
2022-07-30T01:12:23.431Z,6.28
2022-07-30T01:13:25.663Z,6.55
2022-07-30T01:14:29.019Z,6.18
2022-07-30T01:15:31.449Z,6.30
2022-07-30T01:16:35.353Z,6.70
2022-07-30T01:17:40.351Z,6.80
2022-07-30T01:19:03.816Z,6.45
2022-07-30T01:20:37.305Z,6.40
2022-07-30T01:21:41.764Z,6.77
2022-07-30T01:23:08.354Z,6.40
2022-07-30T01:24:38.757Z,6.63
2022-07-30T01:26:02.178Z,6.32
2022-07-30T01:27:06.407Z,6.05
2022-07-30T01:28:18.585Z,6.00
2022-07-30T01:29:23.018Z,6.35
2022-07-30T01:30:29.970Z,6.57
2022-07-30T01:31:34.251Z,6.70
2022-07-30T01:32:41.923Z,6.18
2022-07-30T01:33:47.666Z,6.90
2022-07-30T01:34:52.760Z,6.47
2022-07-30T01:35:57.170Z,6.55
2022-07-30T01:37:00.334Z,6.55
2022-07-30T01:38:05.873Z,6.97
2022-07-30T01:39:08.773Z,6.70
2022-07-30T01:40:14.881Z,6.80
2022-07-30T01:41:19.473Z,6.88
2022-07-30T01:42:24.094Z,6.70
2022-07-30T01:43:27.567Z,6.55
2022-07-30T01:44:30.153Z,6.10
2022-07-30T01:45:41.387Z,6.60
2022-07-30T01:46:48.766Z,6.55
2022-07-30T01:47:53.477Z,6.50
2022-07-30T01:48:57.691Z,6.80
2022-07-30T01:50:10.887Z,6.97
2022-07-30T01:51:13.890Z,7.20
2022-07-30T01:52:22.072Z,6.97
2022-07-30T01:53:31.461Z,7.07
2022-07-30T01:54:35.671Z,7.18
2022-07-30T01:55:42.150Z,6.90
2022-07-30T01:56:46.304Z,6.65
2022-07-30T01:57:50.130Z,6.68
2022-07-30T01:58:54.327Z,7.03
2022-07-30T02:00:03.741Z,6.80
2022-07-30T02:01:18.794Z,7.25
2022-07-30T02:02:21.264Z,6.88
2022-07-30T02:03:24.397Z,7.40
2022-07-30T02:04:29.921Z,7.25
2022-07-30T02:05:34.598Z,7.28
2022-07-30T02:06:43.432Z,7.27
2022-07-30T02:07:59.109Z,7.57
2022-07-30T02:09:10.545Z,7.35
2022-07-30T02:10:36.727Z,8.00
2022-07-30T02:12:03.742Z,7.45
2022-07-30T02:13:08.290Z,7.10
2022-07-30T02:14:27.944Z,7.18
2022-07-30T02:15:42.277Z,7.15
2022-07-30T02:16:50.075Z,7.05
2022-07-30T02:18:03.001Z,6.80
2022-07-30T02:19:18.452Z,6.77
2022-07-30T02:20:25.283Z,6.57
2022-07-30T02:21:37.792Z,6.75
2022-07-30T02:22:43.759Z,6.80
2022-07-30T02:23:48.645Z,6.50
2022-07-30T02:24:52.321Z,7.20
2022-07-30T02:25:56.045Z,7.00
2022-07-30T02:27:04.974Z,6.60
2022-07-30T02:28:10.370Z,7.13
2022-07-30T02:29:13.151Z,7.40
2022-07-30T02:30:16.101Z,7.40
2022-07-30T02:31:23.657Z,6.95
2022-07-30T02:32:29.995Z,7.20
2022-07-30T02:33:37.670Z,7.05
2022-07-30T02:34:56.043Z,7.13
2022-07-30T02:35:59.397Z,7.10
2022-07-30T02:37:04.497Z,7.18
2022-07-30T02:38:08.284Z,6.97
2022-07-30T02:39:12.006Z,6.95
2022-07-30T02:40:17.122Z,7.20
2022-07-30T02:41:25.297Z,7.17
2022-07-30T02:42:30.162Z,7.18
2022-07-30T02:43:36.363Z,7.40
2022-07-30T02:44:43.921Z,7.75
2022-07-30T02:45:48.897Z,7.20
2022-07-30T02:46:54.721Z,6.93
2022-07-30T02:48:34.714Z,6.93
2022-07-30T02:49:42.432Z,7.30
2022-07-30T02:50:46.356Z,7.10
2022-07-30T02:51:50.215Z,7.32
2022-07-30T02:52:54.796Z,7.03
2022-07-30T02:53:58.660Z,7.43
2022-07-30T02:55:02.854Z,7.25
2022-07-30T02:56:07.795Z,7.30
2022-07-30T02:57:11.295Z,7.00
2022-07-30T02:58:20.830Z,7.28
2022-07-30T02:59:26.169Z,7.47
2022-07-30T03:00:29.943Z,7.43
2022-07-30T03:01:34.320Z,6.82
2022-07-30T03:02:37.440Z,7.22
2022-07-30T03:03:43.902Z,7.50
2022-07-30T03:04:48.503Z,7.50
2022-07-30T03:05:53.670Z,7.15
2022-07-30T03:06:57.587Z,6.85
2022-07-30T03:08:02.871Z,7.13
2022-07-30T03:09:07.464Z,7.18
2022-07-30T03:10:12.302Z,7.40
2022-07-30T03:11:19.142Z,7.05
2022-07-30T03:12:22.691Z,7.40
2022-07-30T03:13:27.007Z,7.32
2022-07-30T03:14:29.620Z,7.50
2022-07-30T03:15:34.992Z,7.60
2022-07-30T03:16:47.413Z,7.60
2022-07-30T03:17:55.545Z,7.10
2022-07-30T03:19:02.737Z,7.18
2022-07-30T03:20:15.654Z,7.13
2022-07-30T03:21:20.506Z,8.00
2022-07-30T03:22:30.044Z,7.63
2022-07-30T03:23:37.788Z,7.57
2022-07-30T03:24:43.669Z,7.45
2022-07-30T03:25:51.314Z,7.03
2022-07-30T03:26:58.670Z,7.05
2022-07-30T03:28:03.967Z,7.35
2022-07-30T03:29:08.881Z,7.47
2022-07-30T03:30:14.324Z,7.65
2022-07-30T03:31:17.335Z,7.50
2022-07-30T03:32:26.186Z,7.57
2022-07-30T03:33:38.214Z,7.70
2022-07-30T03:34:42.613Z,7.00
2022-07-30T03:35:48.975Z,7.53
2022-07-30T03:36:51.534Z,7.77
2022-07-30T03:37:55.000Z,7.32
2022-07-30T03:38:58.024Z,7.20
2022-07-30T03:40:00.891Z,7.22
2022-07-30T03:41:04.038Z,7.38
2022-07-30T03:42:08.241Z,7.60
2022-07-30T03:43:32.288Z,7.32
2022-07-30T03:44:35.348Z,7.60
2022-07-30T03:45:41.847Z,7.40
2022-07-30T03:46:46.012Z,6.95
2022-07-30T03:47:48.955Z,7.73
2022-07-30T03:48:53.646Z,7.68
2022-07-30T03:49:56.030Z,7.10
2022-07-30T03:50:59.874Z,6.97
2022-07-30T03:52:04.691Z,7.43
2022-07-30T03:53:09.574Z,7.50
2022-07-30T03:54:27.798Z,7.40
2022-07-30T03:55:53.934Z,7.38
2022-07-30T03:57:17.581Z,8.00
2022-07-30T03:58:23.322Z,7.47
2022-07-30T03:59:27.006Z,7.50
2022-07-30T04:00:30.161Z,7.70
2022-07-30T04:01:32.510Z,7.80
2022-07-30T04:02:46.229Z,7.50
2022-07-30T04:04:11.008Z,8.02
2022-07-30T04:05:16.149Z,8.27
2022-07-30T04:06:19.652Z,7.88
2022-07-30T04:07:23.548Z,7.45
2022-07-30T04:08:30.798Z,7.80
2022-07-30T04:09:35.599Z,8.00
2022-07-30T04:10:56.839Z,8.50
2022-07-30T04:12:26.218Z,7.80
2022-07-30T04:13:29.782Z,8.25
2022-07-30T04:14:45.251Z,7.93
2022-07-30T04:16:41.158Z,8.18
2022-07-30T04:17:49.848Z,8.23
2022-07-30T04:18:58.106Z,7.70
2022-07-30T04:20:12.461Z,8.70
2022-07-30T04:21:21.484Z,8.10
2022-07-30T04:22:38.637Z,7.45
2022-07-30T04:24:03.925Z,7.73
2022-07-30T04:25:22.426Z,7.68
2022-07-30T04:26:29.677Z,7.47
2022-07-30T04:27:35.230Z,7.50
2022-07-30T04:28:38.443Z,7.80
2022-07-30T04:29:41.986Z,7.68
2022-07-30T04:30:45.907Z,7.10
2022-07-30T04:31:50.822Z,7.40
2022-07-30T04:33:12.118Z,7.25
2022-07-30T04:34:30.486Z,7.00
2022-07-30T04:35:51.385Z,7.30
2022-07-30T04:37:12.493Z,7.00
2022-07-30T04:38:15.637Z,7.30
2022-07-30T04:39:22.556Z,7.55
2022-07-30T04:40:25.428Z,7.22
2022-07-30T04:41:48.418Z,8.30
2022-07-30T04:43:08.083Z,9.75
2022-07-30T04:44:13.457Z,9.40
2022-07-30T04:45:25.714Z,8.43
2022-07-30T04:46:36.570Z,8.82
2022-07-30T04:47:39.839Z,9.03
2022-07-30T04:49:01.978Z,9.90
2022-07-30T04:50:10.657Z,10.50
2022-07-30T04:51:40.474Z,8.40
2022-07-30T04:52:45.750Z,7.90
2022-07-30T04:53:54.442Z,7.78
2022-07-30T04:55:02.696Z,8.07
2022-07-30T04:56:07.503Z,8.02
2022-07-30T04:57:15.761Z,7.85
2022-07-30T04:58:22.314Z,8.07
2022-07-30T04:59:25.755Z,8.27
2022-07-30T05:00:32.512Z,8.38
2022-07-30T05:01:40.195Z,8.35
2022-07-30T05:02:47.754Z,8.48
2022-07-30T05:03:53.195Z,9.07
2022-07-30T05:05:05.866Z,8.32
2022-07-30T05:06:11.867Z,7.80
2022-07-30T05:07:17.747Z,7.63
2022-07-30T05:08:26.820Z,8.10
2022-07-30T05:09:31.496Z,7.57
2022-07-30T05:10:34.591Z,7.67
2022-07-30T05:11:37.463Z,7.70
2022-07-30T05:12:40.666Z,7.53
2022-07-30T05:13:51.398Z,7.50
2022-07-30T05:14:57.694Z,7.55
2022-07-30T05:16:00.913Z,7.40
2022-07-30T05:17:05.666Z,8.00
2022-07-30T05:18:10.814Z,8.02
2022-07-30T05:19:19.825Z,8.30
2022-07-30T05:20:23.789Z,8.00
2022-07-30T05:21:55.033Z,7.50
2022-07-30T05:23:00.753Z,8.20
2022-07-30T05:24:06.576Z,7.53
2022-07-30T05:25:16.005Z,8.20
2022-07-30T05:26:27.780Z,7.82
2022-07-30T05:27:34.572Z,7.53
2022-07-30T05:28:45.571Z,7.93
2022-07-30T05:29:57.120Z,7.50
2022-07-30T05:31:00.886Z,7.88
2022-07-30T05:32:07.357Z,8.50
2022-07-30T05:33:15.672Z,7.53
2022-07-30T05:34:18.985Z,7.70
2022-07-30T05:35:21.438Z,7.60
2022-07-30T05:36:23.701Z,7.88
2022-07-30T05:37:26.566Z,7.60
2022-07-30T05:38:29.078Z,8.32
2022-07-30T05:39:58.850Z,8.10
2022-07-30T05:41:32.658Z,7.45
2022-07-30T05:42:42.030Z,7.95
2022-07-30T05:43:44.783Z,8.13
2022-07-30T05:44:47.023Z,7.87
2022-07-30T05:45:49.402Z,7.70
2022-07-30T05:46:52.280Z,8.80
2022-07-30T05:47:54.558Z,7.95
2022-07-30T05:48:56.842Z,7.93
2022-07-30T05:50:04.571Z,8.25
2022-07-30T05:51:07.423Z,7.68
2022-07-30T05:52:09.644Z,7.80
2022-07-30T05:53:12.123Z,8.00
2022-07-30T05:54:43.633Z,7.85
2022-07-30T05:56:04.791Z,7.93
2022-07-30T05:57:42.165Z,7.10
2022-07-30T05:58:44.883Z,8.20
2022-07-30T05:59:51.013Z,7.90
2022-07-30T06:01:12.147Z,8.15
2022-07-30T06:02:14.815Z,8.27
2022-07-30T06:03:52.503Z,7.82
2022-07-30T06:05:16.262Z,7.72
2022-07-30T06:06:22.861Z,7.93
2022-07-30T06:07:26.160Z,8.27
2022-07-30T06:08:30.510Z,8.03
2022-07-30T06:09:36.954Z,7.68
2022-07-30T06:10:40.059Z,8.75
2022-07-30T06:11:44.553Z,7.50
2022-07-30T06:12:46.904Z,8.15
2022-07-30T06:13:50.052Z,8.07
2022-07-30T06:14:53.011Z,7.55
2022-07-30T06:16:01.096Z,7.22
2022-07-30T06:17:03.794Z,7.70
2022-07-30T06:18:23.184Z,7.78
2022-07-30T06:19:29.099Z,8.03
2022-07-30T06:20:31.858Z,7.47
2022-07-30T06:22:05.582Z,7.72
2022-07-30T06:23:14.549Z,8.15
2022-07-30T06:24:37.415Z,7.97
2022-07-30T06:25:45.093Z,7.63
2022-07-30T06:26:47.548Z,7.70
2022-07-30T06:27:49.870Z,7.75
2022-07-30T06:28:52.176Z,7.80
2022-07-30T06:30:08.251Z,7.90
2022-07-30T06:31:10.410Z,7.70
2022-07-30T06:32:12.996Z,8.20
2022-07-30T06:33:16.278Z,8.05
2022-07-30T06:34:18.462Z,7.88
2022-07-30T06:35:20.657Z,8.25
2022-07-30T06:36:23.296Z,7.60
2022-07-30T06:38:06.343Z,7.95
2022-07-30T06:39:01.393Z,7.68
2022-07-30T06:40:23.509Z,7.30
2022-07-30T06:41:36.472Z,6.95
2022-07-30T06:42:38.996Z,7.07
2022-07-30T06:44:10.004Z,6.25
2022-07-30T06:45:30.890Z,6.10
2022-07-30T06:46:51.662Z,6.57
2022-07-30T06:48:00.774Z,6.63
2022-07-30T06:49:06.714Z,6.32
2022-07-30T06:50:09.771Z,5.90
2022-07-30T06:51:13.817Z,6.30
2022-07-30T06:52:18.755Z,6.28
2022-07-30T06:53:25.906Z,6.43
2022-07-30T06:54:51.261Z,6.13
2022-07-30T06:56:22.532Z,7.03
2022-07-30T06:57:32.406Z,6.28
2022-07-30T06:58:41.559Z,6.28
2022-07-30T07:00:21.781Z,6.25
2022-07-30T07:01:25.185Z,6.30
2022-07-30T07:02:28.675Z,6.20
2022-07-30T07:03:43.528Z,6.22
2022-07-30T07:04:45.765Z,6.95
2022-07-30T07:05:49.565Z,6.68
2022-07-30T07:06:52.299Z,6.27
2022-07-30T07:08:03.477Z,6.25
2022-07-30T07:09:10.193Z,7.03
2022-07-30T07:10:20.867Z,6.65
2022-07-30T07:11:45.264Z,6.75
2022-07-30T07:12:50.851Z,6.60
2022-07-30T07:13:55.454Z,7.07
2022-07-30T07:15:07.765Z,6.60
2022-07-30T07:16:10.012Z,6.30
2022-07-30T07:17:15.142Z,6.50
2022-07-30T07:18:49.723Z,6.60
2022-07-30T07:20:01.164Z,6.30
2022-07-30T07:21:10.129Z,6.20
2022-07-30T07:22:13.059Z,5.72
2022-07-30T07:23:15.829Z,5.40
2022-07-30T07:24:23.492Z,5.35
2022-07-30T07:25:32.090Z,5.15
2022-07-30T07:26:34.888Z,4.82
2022-07-30T07:27:37.884Z,5.07
2022-07-30T07:28:41.499Z,4.70
2022-07-30T07:30:05.121Z,5.03
2022-07-30T07:31:07.800Z,5.15
2022-07-30T07:32:10.622Z,5.07
2022-07-30T07:33:15.497Z,5.05
2022-07-30T07:34:19.820Z,5.75
2022-07-30T07:35:22.100Z,5.43
2022-07-30T07:36:25.665Z,5.82
2022-07-30T07:37:28.265Z,5.90
2022-07-30T07:38:30.995Z,5.88
2022-07-30T07:39:34.024Z,6.07
2022-07-30T07:40:37.115Z,6.03
2022-07-30T07:41:48.330Z,5.55
2022-07-30T07:42:52.595Z,5.93
2022-07-30T07:43:54.765Z,6.10
2022-07-30T07:45:07.425Z,6.47
2022-07-30T07:46:33.561Z,6.03
2022-07-30T07:47:51.944Z,6.10
2022-07-30T07:49:20.121Z,5.28
2022-07-30T07:50:25.462Z,5.40
2022-07-30T07:51:34.790Z,5.30
2022-07-30T07:52:50.658Z,5.60
2022-07-30T07:54:11.895Z,5.13
2022-07-30T07:55:15.596Z,5.60
2022-07-30T07:56:19.080Z,5.50
2022-07-30T07:57:22.182Z,5.70
2022-07-30T07:58:26.165Z,5.38
2022-07-30T07:59:33.547Z,5.47
2022-07-30T08:00:43.883Z,5.32
2022-07-30T08:01:46.734Z,5.20
2022-07-30T08:02:52.889Z,5.10
2022-07-30T08:03:55.202Z,5.40
2022-07-30T08:05:16.805Z,5.00
2022-07-30T08:06:36.813Z,6.30
2022-07-30T08:08:05.133Z,6.78
2022-07-30T08:09:25.753Z,5.70
2022-07-30T08:10:44.397Z,5.93
2022-07-30T08:12:05.600Z,5.57
2022-07-30T08:13:51.497Z,5.20
2022-07-30T08:15:15.462Z,5.20
2022-07-30T08:16:52.248Z,5.22
2022-07-30T08:18:17.545Z,5.70
2022-07-30T08:19:40.310Z,5.20
2022-07-30T08:20:48.197Z,5.57
2022-07-30T08:21:54.342Z,5.50
2022-07-30T08:22:57.182Z,5.40
2022-07-30T08:24:03.782Z,5.25
2022-07-30T08:25:08.512Z,5.22
2022-07-30T08:26:10.911Z,4.90
2022-07-30T08:27:13.198Z,5.05
2022-07-30T08:28:35.337Z,5.00
2022-07-30T08:29:37.809Z,4.80
2022-07-30T08:30:40.791Z,4.93
2022-07-30T08:31:42.992Z,4.95
2022-07-30T08:32:45.184Z,5.05
2022-07-30T08:33:47.402Z,4.60
2022-07-30T08:34:50.025Z,5.25
2022-07-30T08:35:55.937Z,5.10
2022-07-30T08:37:01.362Z,4.30
2022-07-30T08:38:03.670Z,5.03
2022-07-30T08:39:05.899Z,4.50
2022-07-30T08:40:09.157Z,4.90
2022-07-30T08:41:20.420Z,5.47
2022-07-30T08:42:23.594Z,4.85
2022-07-30T08:43:29.293Z,5.85
2022-07-30T08:44:34.101Z,4.90
2022-07-30T08:45:37.839Z,4.68
2022-07-30T08:46:56.404Z,5.00
2022-07-30T08:48:26.227Z,5.22
2022-07-30T08:49:28.751Z,5.00
2022-07-30T08:50:31.182Z,5.35
2022-07-30T08:51:52.664Z,4.87
2022-07-30T08:53:21.525Z,4.80
2022-07-30T08:54:23.954Z,4.80
2022-07-30T08:55:26.307Z,4.80
2022-07-30T08:56:30.088Z,4.90
2022-07-30T08:57:34.827Z,5.10
2022-07-30T08:58:38.129Z,5.35
2022-07-30T09:00:00.180Z,5.40
2022-07-30T09:01:05.249Z,5.32
2022-07-30T09:02:12.062Z,5.18
2022-07-30T09:03:27.934Z,5.30
2022-07-30T09:04:34.199Z,5.28
2022-07-30T09:05:36.420Z,5.50
2022-07-30T09:06:40.943Z,5.03
2022-07-30T09:07:45.536Z,4.97
2022-07-30T09:09:11.192Z,5.10
2022-07-30T09:10:13.463Z,5.55
2022-07-30T09:11:15.857Z,4.82
2022-07-30T09:12:44.471Z,5.18
2022-07-30T09:13:47.130Z,5.13
2022-07-30T09:15:22.550Z,5.20
2022-07-30T09:16:27.263Z,5.15
2022-07-30T09:17:59.492Z,5.10
2022-07-30T09:19:12.809Z,5.63
2022-07-30T09:20:25.572Z,5.35
2022-07-30T09:21:29.397Z,5.72
2022-07-30T09:23:00.809Z,6.55
2022-07-30T09:24:21.559Z,5.57
2022-07-30T09:25:45.063Z,5.60
2022-07-30T09:27:24.536Z,5.32
2022-07-30T09:28:53.455Z,6.13
2022-07-30T09:30:52.299Z,5.70
2022-07-30T09:32:13.373Z,6.25
2022-07-30T09:33:35.234Z,5.20
2022-07-30T09:34:56.965Z,5.70
2022-07-30T09:36:19.271Z,5.30
2022-07-30T09:37:41.562Z,5.30
2022-07-30T09:39:02.387Z,5.25
2022-07-30T09:40:23.396Z,5.20
2022-07-30T09:41:58.389Z,5.35
2022-07-30T09:43:09.195Z,5.57
2022-07-30T09:44:24.427Z,6.35
2022-07-30T09:45:34.495Z,5.38
2022-07-30T09:46:48.401Z,5.40
2022-07-30T09:48:24.220Z,5.20
2022-07-30T09:49:28.181Z,4.97
2022-07-30T09:50:31.056Z,4.97
2022-07-30T09:51:55.968Z,4.80
2022-07-30T09:53:12.158Z,5.25
2022-07-30T09:54:18.561Z,5.30
2022-07-30T09:55:33.848Z,4.87
2022-07-30T09:56:36.325Z,4.80
2022-07-30T09:58:02.487Z,5.63
2022-07-30T09:59:04.968Z,5.72
2022-07-30T10:00:23.931Z,6.00
2022-07-30T10:02:01.083Z,5.60
2022-07-30T10:03:43.120Z,5.80
2022-07-30T10:05:15.468Z,6.00
2022-07-30T10:06:18.135Z,5.53
2022-07-30T10:07:25.268Z,5.40
2022-07-30T10:08:40.702Z,5.87
2022-07-30T10:09:45.429Z,6.25
2022-07-30T10:10:50.942Z,6.20
2022-07-30T10:11:59.797Z,6.60
2022-07-30T10:13:07.561Z,5.97
2022-07-30T10:14:10.297Z,5.65
2022-07-30T10:15:15.742Z,5.30
2022-07-30T10:16:18.203Z,5.40
2022-07-30T10:17:22.090Z,5.45
2022-07-30T10:18:43.330Z,5.63
2022-07-30T10:20:08.918Z,5.87
2022-07-30T10:21:36.117Z,6.43
2022-07-30T10:23:20.296Z,6.50
2022-07-30T10:25:05.214Z,5.45
2022-07-30T10:26:35.254Z,5.70
2022-07-30T10:28:07.043Z,5.70
2022-07-30T10:29:09.548Z,5.68
2022-07-30T10:30:16.447Z,5.57
2022-07-30T10:31:49.521Z,5.53
2022-07-30T10:32:42.431Z,5.20
2022-07-30T10:33:44.827Z,5.00
2022-07-30T10:34:49.119Z,5.53
2022-07-30T10:35:52.295Z,5.10
2022-07-30T10:37:04.625Z,5.53
2022-07-30T10:38:14.267Z,5.28
2022-07-30T10:39:24.621Z,5.15
2022-07-30T10:40:34.219Z,5.68
2022-07-30T10:42:18.923Z,5.30
2022-07-30T10:44:05.584Z,5.15
2022-07-30T10:45:33.034Z,5.10
2022-07-30T10:46:56.748Z,5.00
2022-07-30T10:48:03.734Z,4.38
2022-07-30T10:49:18.864Z,4.05
2022-07-30T10:50:27.016Z,4.43
2022-07-30T10:51:55.529Z,4.03
2022-07-30T10:53:01.338Z,4.00
2022-07-30T10:54:03.562Z,4.00
2022-07-30T10:55:14.101Z,4.07
2022-07-30T10:56:25.834Z,3.80
2022-07-30T10:57:32.095Z,3.70
2022-07-30T10:58:57.807Z,3.90
2022-07-30T11:00:03.792Z,4.10
2022-07-30T11:01:06.600Z,3.88
2022-07-30T11:02:21.880Z,4.80
2022-07-30T11:03:40.792Z,4.25
2022-07-30T11:04:47.144Z,3.90
2022-07-30T11:05:51.501Z,3.83
2022-07-30T11:07:23.554Z,4.00
2022-07-30T11:08:37.369Z,3.72
2022-07-30T11:09:44.940Z,4.63
2022-07-30T11:12:01.308Z,4.60
2022-07-30T11:12:55.395Z,4.00
2022-07-30T11:13:59.889Z,4.07
2022-07-30T11:15:07.279Z,4.05
2022-07-30T11:16:20.605Z,4.03
2022-07-30T11:17:24.223Z,4.00
2022-07-30T11:18:28.731Z,3.97
2022-07-30T11:19:56.661Z,3.80
2022-07-30T11:21:15.559Z,4.05
2022-07-30T11:23:47.825Z,4.17
2022-07-30T11:24:52.722Z,3.90
2022-07-30T11:25:55.135Z,4.15
2022-07-30T11:26:57.293Z,4.00
2022-07-30T11:28:00.995Z,4.00
2022-07-30T11:29:04.733Z,3.80
2022-07-30T11:30:30.081Z,4.00
2022-07-30T11:32:07.458Z,3.90
2022-07-30T11:33:18.737Z,4.30
2022-07-30T11:34:24.103Z,4.00
2022-07-30T11:35:35.218Z,3.90
2022-07-30T11:36:37.817Z,4.10
2022-07-30T11:38:24.976Z,4.07
2022-07-30T11:40:08.084Z,4.18
2022-07-30T11:41:10.404Z,4.20
2022-07-30T11:42:29.858Z,4.15
2022-07-30T11:43:36.264Z,3.80
2022-07-30T11:44:38.957Z,4.18
2022-07-30T11:45:41.414Z,4.00
2022-07-30T11:46:49.882Z,4.10
2022-07-30T11:47:55.293Z,4.33
2022-07-30T11:49:08.826Z,4.30
2022-07-30T11:50:29.141Z,4.28
2022-07-30T11:51:44.719Z,4.10
2022-07-30T11:52:52.502Z,4.00
2022-07-30T11:54:10.845Z,4.00
2022-07-30T11:55:33.300Z,4.00
2022-07-30T11:56:35.500Z,3.97
2022-07-30T11:57:41.962Z,4.05
2022-07-30T11:58:44.994Z,4.07
2022-07-30T11:59:57.169Z,3.60
2022-07-30T12:01:09.433Z,4.13
2022-07-30T12:02:11.766Z,4.28
2022-07-30T12:03:19.817Z,3.90
2022-07-30T12:04:30.195Z,4.20
2022-07-30T12:05:32.701Z,4.22
2022-07-30T12:06:43.404Z,4.30
2022-07-30T12:07:47.137Z,3.75
2022-07-30T12:08:55.109Z,4.43
2022-07-30T12:10:14.185Z,4.20
2022-07-30T12:11:18.654Z,4.33
2022-07-30T12:12:24.434Z,3.55
2022-07-30T12:13:44.214Z,4.45
2022-07-30T12:14:48.670Z,4.38
2022-07-30T12:15:50.905Z,4.45
2022-07-30T12:16:54.642Z,4.20
2022-07-30T12:18:24.201Z,4.05
2022-07-30T12:19:23.289Z,4.10
2022-07-30T12:20:26.123Z,4.10
2022-07-30T12:21:28.425Z,4.25
2022-07-30T12:22:35.149Z,4.30
2022-07-30T12:23:38.592Z,4.68
2022-07-30T12:24:40.909Z,4.38
2022-07-30T12:25:47.783Z,4.60
2022-07-30T12:27:04.226Z,4.85
2022-07-30T12:28:07.248Z,4.50
2022-07-30T12:29:13.270Z,4.60
2022-07-30T12:30:18.063Z,4.50
2022-07-30T12:31:20.589Z,4.50
2022-07-30T12:32:23.062Z,4.30
2022-07-30T12:33:26.053Z,4.50
2022-07-30T12:34:28.224Z,4.18
2022-07-30T12:36:02.705Z,4.53
2022-07-30T12:37:10.771Z,4.43
2022-07-30T12:38:14.318Z,4.53
2022-07-30T12:39:22.651Z,3.72
2022-07-30T12:40:24.937Z,4.45
2022-07-30T12:41:51.453Z,4.72
2022-07-30T12:42:54.235Z,4.70
2022-07-30T12:43:57.958Z,4.30
2022-07-30T12:45:00.197Z,4.30
2022-07-30T12:46:02.606Z,4.30
2022-07-30T12:47:19.405Z,4.60
2022-07-30T12:48:23.081Z,4.72
2022-07-30T12:49:36.726Z,4.10
2022-07-30T12:50:41.758Z,4.55
2022-07-30T12:52:00.047Z,4.32
2022-07-30T12:53:02.769Z,4.07
2022-07-30T12:54:19.836Z,4.00
2022-07-30T12:55:38.691Z,3.90
2022-07-30T12:56:42.034Z,3.77
2022-07-30T12:58:05.409Z,3.80
2022-07-30T12:59:22.678Z,4.28
2022-07-30T13:00:33.894Z,4.35
2022-07-30T13:01:42.020Z,3.92
2022-07-30T13:02:44.477Z,4.20
2022-07-30T13:03:46.929Z,4.15
2022-07-30T13:04:59.010Z,4.65
2022-07-30T13:06:34.034Z,4.20
2022-07-30T13:07:55.542Z,4.50
2022-07-30T13:09:00.153Z,4.50
2022-07-30T13:10:21.330Z,4.30
2022-07-30T13:11:42.567Z,4.30
2022-07-30T13:12:52.147Z,4.40
2022-07-30T13:13:54.612Z,4.40
2022-07-30T13:14:56.781Z,4.72
2022-07-30T13:16:01.413Z,4.85
2022-07-30T13:17:04.156Z,5.10
2022-07-30T13:18:22.401Z,5.93
2022-07-30T13:19:29.760Z,5.70
2022-07-30T13:20:32.331Z,6.73
2022-07-30T13:21:35.465Z,7.00
2022-07-30T13:22:37.768Z,7.43
2022-07-30T13:23:41.656Z,7.70
2022-07-30T13:24:44.015Z,7.85
2022-07-30T13:25:46.282Z,8.35
2022-07-30T13:26:50.844Z,8.40
2022-07-30T13:27:53.233Z,8.07
2022-07-30T13:29:01.742Z,8.73
2022-07-30T13:30:05.855Z,8.10
2022-07-30T13:31:11.743Z,8.30
2022-07-30T13:32:14.085Z,8.02
2022-07-30T13:33:16.676Z,8.20
2022-07-30T13:34:29.151Z,8.60
2022-07-30T13:35:32.927Z,8.23
2022-07-30T13:36:35.174Z,8.15
2022-07-30T13:37:38.413Z,8.50
2022-07-30T13:38:41.066Z,7.22
2022-07-30T13:39:51.065Z,7.43
2022-07-30T13:40:57.000Z,7.22
2022-07-30T13:42:02.969Z,6.93
2022-07-30T13:43:06.751Z,6.63
2022-07-30T13:44:09.016Z,6.15
2022-07-30T13:45:11.535Z,6.30
2022-07-30T13:46:13.894Z,5.80
2022-07-30T13:47:17.523Z,6.20
2022-07-30T13:48:20.295Z,6.30
2022-07-30T13:49:27.962Z,6.63
2022-07-30T13:50:40.421Z,6.45
2022-07-30T13:51:42.633Z,7.03
2022-07-30T13:52:45.269Z,7.70
2022-07-30T13:53:47.557Z,7.78
2022-07-30T13:54:51.452Z,7.50
2022-07-30T13:55:53.667Z,7.68
2022-07-30T13:56:56.210Z,7.18
2022-07-30T13:57:58.582Z,7.10
2022-07-30T13:59:02.261Z,7.65
2022-07-30T14:00:07.030Z,7.25
2022-07-30T14:01:15.922Z,7.15
2022-07-30T14:02:20.626Z,6.13
2022-07-30T14:03:22.791Z,7.20
2022-07-30T14:04:25.061Z,6.70
2022-07-30T14:05:27.480Z,6.57
2022-07-30T14:06:29.715Z,5.75
2022-07-30T14:07:31.993Z,6.57
2022-07-30T14:08:34.169Z,5.82
2022-07-30T14:09:45.788Z,5.78
2022-07-30T14:10:49.703Z,5.60
2022-07-30T14:11:52.951Z,5.60
2022-07-30T14:12:56.013Z,5.80
2022-07-30T14:13:58.182Z,5.40
2022-07-30T14:15:00.715Z,5.70
2022-07-30T14:16:02.898Z,5.22
2022-07-30T14:17:06.948Z,5.22
2022-07-30T14:18:09.449Z,5.18
2022-07-30T14:19:22.921Z,4.93
2022-07-30T14:20:29.078Z,5.20
2022-07-30T14:21:33.505Z,5.38
2022-07-30T14:22:36.089Z,5.20
2022-07-30T14:23:39.151Z,5.10
2022-07-30T14:24:43.490Z,5.60
2022-07-30T14:25:45.936Z,5.53
2022-07-30T14:26:49.109Z,5.32
2022-07-30T14:27:51.748Z,5.10
2022-07-30T14:28:54.328Z,5.35
2022-07-30T14:29:56.664Z,5.43
2022-07-30T14:31:00.207Z,5.80
2022-07-30T14:32:02.825Z,5.53
2022-07-30T14:33:05.240Z,5.30
2022-07-30T14:34:07.502Z,5.15
2022-07-30T14:35:40.750Z,4.70
2022-07-30T14:36:34.166Z,4.60
2022-07-30T14:37:38.202Z,4.72
2022-07-30T14:38:42.817Z,4.70
2022-07-30T14:39:45.047Z,4.72
2022-07-30T14:40:47.259Z,4.55
2022-07-30T14:41:50.708Z,4.88
2022-07-30T14:42:58.111Z,4.40
2022-07-30T14:44:00.369Z,4.93
2022-07-30T14:45:05.023Z,4.70
2022-07-30T14:46:07.212Z,4.90
2022-07-30T14:47:09.898Z,4.80
2022-07-30T14:48:14.479Z,4.95
2022-07-30T14:49:16.671Z,5.03
2022-07-30T14:50:19.135Z,4.93
2022-07-30T14:51:26.188Z,4.45
2022-07-30T14:52:29.290Z,4.85
2022-07-30T14:53:31.940Z,4.32
2022-07-30T14:54:34.264Z,4.43
2022-07-30T14:55:36.543Z,4.40
2022-07-30T14:56:39.518Z,4.50
2022-07-30T14:57:43.574Z,3.97
2022-07-30T14:58:46.268Z,4.60
2022-07-30T14:59:48.461Z,4.28
2022-07-30T15:00:51.102Z,5.15
2022-07-30T15:02:11.187Z,4.75
2022-07-30T15:03:15.108Z,4.20
2022-07-30T15:04:18.554Z,4.20
2022-07-30T15:05:21.549Z,4.70
2022-07-30T15:06:23.751Z,4.15
2022-07-30T15:07:26.037Z,4.20
2022-07-30T15:08:31.471Z,3.95
2022-07-30T15:09:34.285Z,4.15
2022-07-30T15:10:36.463Z,4.20
2022-07-30T15:12:04.263Z,5.35
2022-07-30T15:13:02.315Z,4.18
2022-07-30T15:14:04.561Z,4.30
2022-07-30T15:15:09.002Z,4.13
2022-07-30T15:16:11.678Z,4.30
2022-07-30T15:17:14.757Z,4.10
2022-07-30T15:18:17.392Z,4.27
2022-07-30T15:19:19.665Z,4.32
2022-07-30T15:20:21.877Z,4.22
2022-07-30T15:21:24.824Z,4.07